Time;durP1;ratioP1;P1;durP2;ratioP2;P2;SDS_P1;SDS_P2;PMS_P1;PMS_P2;Temp;Humidity;BMP_temperature;BMP_pressure;BME280_temperature;BME280_humidity;BME280_pressure;Samples;Min_cycle;Max_cycle;Signal;HPM_P1;HPM_P2
2023/08/26 00:01:02;;;;;;;6.97;6.27;;;;;;;22.44;100.00;97645.00;4171651;28;20734;-87
2023/08/26 00:03:06;;;;;;;9.17;7.03;;;;;;;22.43;100.00;97638.88;4163929;28;20685;-86
2023/08/26 00:05:10;;;;;;;7.70;6.90;;;;;;;22.46;100.00;97635.81;4177068;28;20712;-86
2023/08/26 00:07:13;;;;;;;8.10;7.30;;;;;;;22.49;100.00;97629.28;4150302;28;20685;-87
2023/08/26 00:09:17;;;;;;;10.93;8.20;;;;;;;22.50;100.00;97650.38;4184001;28;20665;-86
2023/08/26 00:11:20;;;;;;;9.40;7.20;;;;;;;22.50;100.00;97649.56;4187770;28;20660;-87
2023/08/26 00:13:23;;;;;;;8.70;6.70;;;;;;;22.48;100.00;97630.31;4172407;28;21213;-86
2023/08/26 00:15:25;;;;;;;8.07;7.27;;;;;;;22.45;100.00;97634.16;4158301;28;20635;-86
2023/08/26 00:17:29;;;;;;;7.83;7.00;;;;;;;22.45;100.00;97674.06;4167614;28;20638;-86
2023/08/26 00:19:32;;;;;;;8.40;7.10;;;;;;;22.47;100.00;97671.19;4168590;28;20635;-86
2023/08/26 00:21:37;;;;;;;7.33;6.30;;;;;;;22.48;100.00;97651.59;4170364;28;20633;-86
2023/08/26 00:23:40;;;;;;;8.13;7.33;;;;;;;22.46;100.00;97657.09;4153340;28;20640;-86
2023/08/26 00:25:43;;;;;;;8.60;6.93;;;;;;;22.46;100.00;97659.75;4171354;28;21007;-86
2023/08/26 00:27:47;;;;;;;10.10;7.03;;;;;;;22.45;100.00;97670.56;4159440;28;21127;-86
2023/08/26 00:29:50;;;;;;;7.83;7.03;;;;;;;22.49;100.00;97680.66;4162800;28;20665;-86
2023/08/26 00:31:53;;;;;;;8.13;6.27;;;;;;;22.47;100.00;97681.84;4161847;28;20668;-86
2023/08/26 00:33:57;;;;;;;11.40;6.90;;;;;;;22.47;100.00;97685.31;4176201;28;20644;-86
2023/08/26 00:36:01;;;;;;;9.00;7.10;;;;;;;22.48;100.00;97688.81;4148332;28;20638;-86
2023/08/26 00:38:06;;;;;;;7.77;6.97;;;;;;;22.49;100.00;97687.78;4167931;28;20631;-86
2023/08/26 00:40:11;;;;;;;9.73;7.03;;;;;;;22.49;100.00;97685.97;4153582;28;21304;-86
2023/08/26 00:42:14;;;;;;;7.87;6.93;;;;;;;22.48;100.00;97692.28;4154467;28;20621;-86
2023/08/26 00:44:17;;;;;;;8.27;7.47;;;;;;;22.47;100.00;97679.19;4177563;28;20634;-86
2023/08/26 00:46:23;;;;;;;7.67;6.87;;;;;;;22.47;100.00;97680.00;4161382;28;20746;-87
2023/08/26 00:48:26;;;;;;;8.10;7.20;;;;;;;22.46;100.00;97701.44;4163382;28;20615;-86
2023/08/26 00:50:29;;;;;;;8.60;7.30;;;;;;;22.44;100.00;97709.63;4150849;28;21215;-86
2023/08/26 00:52:33;;;;;;;7.70;6.90;;;;;;;22.42;100.00;97695.69;4151395;28;21038;-86
2023/08/26 00:54:38;;;;;;;7.67;6.77;;;;;;;22.42;100.00;97690.38;4157169;28;20647;-86
2023/08/26 00:56:41;;;;;;;10.13;7.17;;;;;;;22.45;100.00;97695.31;4163146;28;20638;-86
2023/08/26 00:58:44;;;;;;;8.50;7.60;;;;;;;22.47;100.00;97689.81;4161553;28;20631;-86
2023/08/26 01:00:49;;;;;;;9.47;8.27;;;;;;;22.47;100.00;97679.19;4167848;28;20649;-86
2023/08/26 01:02:53;;;;;;;8.40;7.17;;;;;;;22.47;100.00;97682.66;4155721;28;20732;-86
2023/08/26 01:04:56;;;;;;;8.33;6.73;;;;;;;22.49;100.00;97685.97;4169329;28;21294;-86
2023/08/26 01:06:59;;;;;;;8.20;7.40;;;;;;;22.49;100.00;97693.94;4168708;28;20745;-86
2023/08/26 01:09:03;;;;;;;8.73;7.23;;;;;;;22.51;100.00;97704.41;4163016;28;20636;-87
2023/08/26 01:11:10;;;;;;;8.10;7.30;;;;;;;22.50;100.00;97703.56;4172577;28;20678;-86
2023/08/26 01:13:15;;;;;;;8.73;7.23;;;;;;;22.51;100.00;97702.56;4157600;28;20758;-86
2023/08/26 01:15:18;;;;;;;7.93;7.13;;;;;;;22.51;100.00;97701.72;4155716;28;20663;-85
2023/08/26 01:17:21;;;;;;;8.67;7.10;;;;;;;22.51;100.00;97709.72;4165937;28;20644;-86
2023/08/26 01:19:32;;;;;;;9.10;6.73;;;;;;;22.49;100.00;97701.94;4161207;28;20632;-86
2023/08/26 01:21:37;;;;;;;7.73;7.03;;;;;;;22.49;100.00;97698.41;4155586;28;20632;-86
2023/08/26 01:23:42;;;;;;;7.37;6.47;;;;;;;22.49;100.00;97707.25;4154902;28;20667;-93
2023/08/26 01:25:46;;;;;;;7.77;7.00;;;;;;;22.49;100.00;97722.34;4174412;28;21295;-91
2023/08/26 01:27:50;;;;;;;9.00;7.53;;;;;;;22.45;100.00;97721.09;4171795;28;20622;-90
2023/08/26 01:29:54;;;;;;;8.20;7.30;;;;;;;22.42;100.00;97716.97;4175898;28;20627;-89
2023/08/26 01:32:04;;;;;;;10.60;7.50;;;;;;;22.42;100.00;97721.47;4162521;28;20627;-89
2023/08/26 01:34:11;;;;;;;7.70;6.50;;;;;;;22.39;100.00;97746.56;4153525;28;20739;-91
2023/08/26 01:36:17;;;;;;;9.53;7.27;;;;;;;22.29;100.00;97743.38;4172744;28;20678;-90
2023/08/26 01:38:20;;;;;;;9.10;7.60;;;;;;;22.25;100.00;97742.13;4162055;28;20620;-90
2023/08/26 01:40:25;;;;;;;12.80;8.00;;;;;;;22.21;100.00;97728.56;4171984;28;21213;-90
2023/08/26 01:42:28;;;;;;;8.67;7.77;;;;;;;22.19;100.00;97741.16;4183362;28;20688;-92
2023/08/26 01:44:32;;;;;;;9.63;6.97;;;;;;;22.14;100.00;97751.53;4162556;28;20726;-91
2023/08/26 01:46:36;;;;;;;7.77;6.60;;;;;;;22.11;100.00;97755.38;4160665;28;20636;-91
2023/08/26 01:48:39;;;;;;;9.47;7.43;;;;;;;22.11;100.00;97757.22;4169402;28;20650;-92
2023/08/26 01:50:42;;;;;;;8.30;6.70;;;;;;;22.06;100.00;97743.66;4170255;28;21150;-91
2023/08/26 01:52:46;;;;;;;10.37;7.50;;;;;;;22.01;100.00;97727.44;4186496;28;20682;-91
2023/08/26 01:54:49;;;;;;;7.30;6.50;;;;;;;21.97;100.00;97750.06;4168718;28;20668;-92
2023/08/26 01:56:54;;;;;;;8.43;6.17;;;;;;;21.87;100.00;97768.91;4178658;28;20639;-91
2023/08/26 01:58:57;;;;;;;8.30;6.13;;;;;;;21.72;100.00;97767.25;4147744;28;21234;-91
2023/08/26 02:01:05;;;;;;;7.80;6.37;;;;;;;21.58;100.00;97746.81;4166165;28;20643;-91
2023/08/26 02:03:08;;;;;;;8.73;6.20;;;;;;;21.56;100.00;97767.44;4168367;28;20684;-91
2023/08/26 02:05:12;;;;;;;7.40;6.30;;;;;;;21.51;100.00;97753.84;4154640;28;23847;-92
2023/08/26 02:07:16;;;;;;;7.93;5.67;;;;;;;21.53;100.00;97749.22;4170854;28;20632;-92
2023/08/26 02:09:19;;;;;;;6.30;4.80;;;;;;;21.53;100.00;97741.25;4169742;28;20626;-91
2023/08/26 02:11:22;;;;;;;6.53;4.60;;;;;;;21.56;100.00;97738.22;4158074;28;20666;-91
2023/08/26 02:13:29;;;;;;;5.40;4.90;;;;;;;21.61;100.00;97730.53;4164553;28;20692;-92
2023/08/26 02:15:34;;;;;;;5.80;4.40;;;;;;;21.62;100.00;97726.03;4161958;28;20634;-92
2023/08/26 02:17:37;;;;;;;4.73;4.33;;;;;;;21.61;100.00;97727.88;4160641;28;20733;-92
2023/08/26 02:19:41;;;;;;;7.23;4.70;;;;;;;21.64;100.00;97724.88;4170152;28;20739;-92
2023/08/26 02:21:44;;;;;;;4.97;4.30;;;;;;;21.64;100.00;97726.72;4172612;28;20638;-92
2023/08/26 02:23:47;;;;;;;5.20;4.40;;;;;;;21.66;100.00;97736.13;4164178;28;20726;-92
2023/08/26 02:25:51;;;;;;;6.33;4.80;;;;;;;21.71;100.00;97736.41;4159306;28;20633;-88
2023/08/26 02:27:53;;;;;;;5.20;4.70;;;;;;;21.71;100.00;97741.72;4159339;28;20636;-92
2023/08/26 02:29:58;;;;;;;4.90;4.27;;;;;;;21.75;100.00;97758.13;4173608;28;20639;-92
2023/08/26 02:32:02;;;;;;;4.33;3.93;;;;;;;21.80;100.00;97767.19;4177100;28;20629;-93
2023/08/26 02:34:05;;;;;;;5.23;4.10;;;;;;;21.80;100.00;97761.88;4176878;28;20669;-87
2023/08/26 02:36:08;;;;;;;5.67;4.00;;;;;;;21.82;100.00;97759.88;4155868;28;20641;-86
2023/08/26 02:38:14;;;;;;;4.80;4.27;;;;;;;21.84;100.00;97755.19;4160815;28;20636;-85
2023/08/26 02:40:17;;;;;;;6.10;4.60;;;;;;;21.84;100.00;97755.19;4164316;28;20630;-85
2023/08/26 02:42:21;;;;;;;4.77;4.20;;;;;;;21.86;100.00;97753.16;4173728;28;20634;-86
2023/08/26 02:44:24;;;;;;;4.93;4.40;;;;;;;21.88;100.00;97751.97;4160914;28;20678;-87
2023/08/26 02:46:29;;;;;;;5.73;4.60;;;;;;;21.89;100.00;97752.81;4170037;28;21213;-86
2023/08/26 02:48:33;;;;;;;4.27;3.80;;;;;;;21.92;100.00;97744.47;4153263;28;20765;-86
2023/08/26 02:50:38;;;;;;;6.73;4.50;;;;;;;21.93;100.00;97746.94;4186527;28;20723;-85
2023/08/26 02:52:41;;;;;;;5.43;4.80;;;;;;;21.93;100.00;97751.44;4166627;28;20626;-86
2023/08/26 02:54:44;;;;;;;4.57;3.83;;;;;;;21.93;100.00;97757.56;4148449;28;20718;-86
2023/08/26 02:56:48;;;;;;;4.40;3.87;;;;;;;21.93;100.00;97751.44;4160618;28;20633;-86
2023/08/26 02:58:51;;;;;;;4.60;4.10;;;;;;;21.93;100.00;97756.75;4174696;28;21267;-86
2023/08/26 03:00:55;;;;;;;5.37;4.67;;;;;;;21.93;100.00;97762.88;4170155;28;20631;-86
2023/08/26 03:03:00;;;;;;;5.10;4.40;;;;;;;21.92;100.00;97757.75;4171075;28;20630;-86
2023/08/26 03:05:02;;;;;;;5.00;4.30;;;;;;;21.90;100.00;97751.81;4169016;28;21315;-85
2023/08/26 03:07:05;;;;;;;4.87;4.37;;;;;;;21.89;100.00;97760.75;4172472;28;21281;-86
2023/08/26 03:09:10;;;;;;;4.60;4.03;;;;;;;21.85;100.00;97765.63;4164241;28;20643;-87
2023/08/26 03:11:13;;;;;;;4.80;4.27;;;;;;;21.84;100.00;97757.84;4152794;28;20635;-86
2023/08/26 03:13:17;;;;;;;5.97;4.70;;;;;;;21.78;100.00;97755.91;4172113;28;20656;-86
2023/08/26 03:15:21;;;;;;;4.40;4.00;;;;;;;21.76;100.00;97753.44;4153967;28;21288;-85
2023/08/26 03:17:24;;;;;;;4.83;4.03;;;;;;;21.78;100.00;97761.22;4160136;28;20630;-86
2023/08/26 03:19:28;;;;;;;4.23;3.83;;;;;;;21.77;100.00;97760.41;4151281;28;20631;-86
2023/08/26 03:21:31;;;;;;;4.57;3.90;;;;;;;21.78;100.00;97763.88;4168662;28;20699;-87
2023/08/26 03:23:35;;;;;;;4.67;3.87;;;;;;;21.77;100.00;97764.91;4163222;28;20985;-86
2023/08/26 03:25:38;;;;;;;4.30;3.90;;;;;;;21.78;100.00;97763.88;4157423;28;20655;-86
2023/08/26 03:27:42;;;;;;;3.93;3.20;;;;;;;21.79;100.00;97761.03;4154421;28;20636;-86
2023/08/26 03:29:45;;;;;;;5.33;3.90;;;;;;;21.79;100.00;97763.69;4170459;28;20703;-86
2023/08/26 03:31:49;;;;;;;4.53;4.13;;;;;;;21.78;100.00;97772.69;4168643;28;20681;-86
2023/08/26 03:33:54;;;;;;;6.97;4.20;;;;;;;21.77;100.00;97770.22;4172064;28;20675;-86
2023/08/26 03:35:58;;;;;;;4.73;3.60;;;;;;;21.79;100.00;97768.19;4166229;28;20679;-86
2023/08/26 03:38:02;;;;;;;4.20;3.80;;;;;;;21.79;100.00;97778.81;4160864;28;20736;-86
2023/08/26 03:40:09;;;;;;;4.90;4.00;;;;;;;21.78;100.00;97778.00;4151668;28;20706;-86
2023/08/26 03:42:12;;;;;;;5.37;4.00;;;;;;;21.79;100.00;97781.47;4154000;28;20626;-86
2023/08/26 03:44:15;;;;;;;4.20;3.80;;;;;;;21.76;100.00;97760.59;4176313;28;20636;-86
2023/08/26 03:46:18;;;;;;;4.70;4.30;;;;;;;21.75;100.00;97761.59;4155289;28;20634;-86
2023/08/26 03:48:22;;;;;;;4.30;3.90;;;;;;;21.76;100.00;97768.56;4164585;28;20744;-86
2023/08/26 03:50:28;;;;;;;4.67;4.03;;;;;;;21.74;100.00;97767.06;4161059;28;20636;-86
2023/08/26 03:52:33;;;;;;;3.90;3.50;;;;;;;21.71;100.00;97767.44;4160840;28;20657;-86
2023/08/26 03:54:36;;;;;;;5.10;3.90;;;;;;;21.68;100.00;97763.34;4155753;28;20671;-86
2023/08/26 03:56:39;;;;;;;4.40;4.00;;;;;;;21.66;100.00;97752.06;4179538;28;20641;-86
2023/08/26 03:58:42;;;;;;;5.00;4.10;;;;;;;21.66;100.00;97754.72;4163659;28;21221;-86
2023/08/26 04:00:46;;;;;;;7.77;3.90;;;;;;;21.67;100.00;97759.03;4173941;28;20621;-86
2023/08/26 04:02:49;;;;;;;4.97;4.47;;;;;;;21.64;100.00;97756.72;4174632;28;21193;-86
2023/08/26 04:04:52;;;;;;;4.67;4.20;;;;;;;21.63;100.00;97765.69;4165287;28;20728;-86
2023/08/26 04:06:57;;;;;;;6.87;5.07;;;;;;;21.62;100.00;97768.53;4151952;28;20641;-86
2023/08/26 04:09:02;;;;;;;4.77;4.00;;;;;;;21.61;100.00;97766.91;4180077;28;20642;-86
2023/08/26 04:11:05;;;;;;;3.93;3.23;;;;;;;21.59;100.00;97772.38;4178238;28;20630;-86
2023/08/26 04:13:19;;;;;;;4.10;3.70;;;;;;;21.57;100.00;97773.56;4162387;28;20636;-86
2023/08/26 04:15:23;;;;;;;3.53;3.23;;;;;;;21.57;100.00;97781.53;4169385;28;21225;-86
2023/08/26 04:17:26;;;;;;;4.40;4.00;;;;;;;21.58;100.00;97791.16;4168149;28;20638;-86
2023/08/26 04:19:30;;;;;;;4.60;3.50;;;;;;;21.59;100.00;97796.28;4166695;28;20639;-86
2023/08/26 04:21:33;;;;;;;4.40;3.73;;;;;;;21.61;100.00;97788.94;4156175;28;20615;-86
2023/08/26 04:23:38;;;;;;;4.00;3.37;;;;;;;21.63;100.00;97788.78;4190171;28;20639;-86
2023/08/26 04:25:43;;;;;;;4.87;4.03;;;;;;;21.63;100.00;97794.91;4173108;28;20636;-86
2023/08/26 04:27:48;;;;;;;7.77;4.07;;;;;;;21.64;100.00;97793.91;4159208;28;20635;-87
2023/08/26 04:29:51;;;;;;;5.03;3.73;;;;;;;21.65;100.00;97803.53;4172124;28;20642;-86
2023/08/26 04:31:54;;;;;;;3.50;2.90;;;;;;;21.63;100.00;97810.81;4170725;28;20656;-86
2023/08/26 04:33:57;;;;;;;5.40;3.60;;;;;;;21.62;100.00;97813.66;4173414;28;20637;-86
2023/08/26 04:36:00;;;;;;;4.97;3.40;;;;;;;21.64;100.00;97815.16;4157828;28;20719;-86
2023/08/26 04:38:03;;;;;;;4.10;3.70;;;;;;;21.65;100.00;97821.28;4153950;28;20668;-86
2023/08/26 04:40:12;;;;;;;4.47;3.83;;;;;;;21.66;100.00;97822.94;4160990;28;20630;-86
2023/08/26 04:42:18;;;;;;;3.60;3.30;;;;;;;21.67;100.00;97832.56;4156315;28;20714;-86
2023/08/26 04:44:21;;;;;;;4.30;3.60;;;;;;;21.69;100.00;97833.19;4162434;28;20717;-86
2023/08/26 04:46:24;;;;;;;4.43;3.90;;;;;;;21.69;100.00;97835.84;4177713;28;20643;-86
2023/08/26 04:48:29;;;;;;;5.70;3.97;;;;;;;21.72;100.00;97835.50;4179769;28;20640;-86
2023/08/26 04:50:32;;;;;;;4.50;4.00;;;;;;;21.72;100.00;97833.66;4169461;28;20645;-86
2023/08/26 04:52:37;;;;;;;4.37;3.80;;;;;;;21.73;100.00;97837.97;4173236;28;20770;-86
2023/08/26 04:54:40;;;;;;;3.90;3.50;;;;;;;21.75;100.00;97835.94;4170213;28;20666;-86
2023/08/26 04:56:44;;;;;;;4.30;3.90;;;;;;;21.76;100.00;97850.88;4173460;28;21059;-86
2023/08/26 04:58:48;;;;;;;4.40;4.00;;;;;;;21.75;100.00;97859.84;4176739;28;20712;-87
2023/08/26 05:00:52;;;;;;;6.43;4.00;;;;;;;21.75;100.00;97859.84;4181784;28;20953;-86
2023/08/26 05:02:56;;;;;;;4.93;4.40;;;;;;;21.75;100.00;97859.03;4153001;28;20628;-88
2023/08/26 05:04:59;;;;;;;7.00;4.20;;;;;;;21.74;100.00;97855.56;4168928;28;20640;-86
2023/08/26 05:07:03;;;;;;;5.43;4.60;;;;;;;21.71;100.00;97861.22;4172433;28;21189;-86
2023/08/26 05:09:06;;;;;;;6.43;4.40;;;;;;;21.71;100.00;97868.34;4171405;28;20635;-86
2023/08/26 05:11:10;;;;;;;5.83;5.00;;;;;;;21.72;100.00;97870.81;4160306;28;20629;-86
2023/08/26 05:13:13;;;;;;;6.43;5.00;;;;;;;21.72;100.00;97870.81;4161987;28;20670;-86
2023/08/26 05:15:20;;;;;;;6.77;5.00;;;;;;;21.75;100.00;97881.09;4154955;28;20654;-86
2023/08/26 05:17:23;;;;;;;6.50;5.50;;;;;;;21.73;100.00;97867.19;4159246;28;21271;-86
2023/08/26 05:19:27;;;;;;;6.37;4.87;;;;;;;21.76;100.00;97876.63;4177446;28;21041;-86
2023/08/26 05:21:31;;;;;;;5.40;4.90;;;;;;;21.74;100.00;97874.16;4162934;28;20724;-86
2023/08/26 05:23:34;;;;;;;5.40;4.90;;;;;;;21.75;100.00;97864.34;4157116;28;20653;-86
2023/08/26 05:25:38;;;;;;;6.07;5.47;;;;;;;21.74;100.00;97874.16;4168299;28;20637;-86
2023/08/26 05:27:41;;;;;;;5.77;5.17;;;;;;;21.74;100.00;97875.97;4160659;28;20745;-86
2023/08/26 05:29:47;;;;;;;8.40;5.30;;;;;;;21.73;100.00;97877.81;4185945;28;21255;-86
2023/08/26 05:31:53;;;;;;;7.43;5.33;;;;;;;21.75;100.00;97875.78;4154093;28;20617;-86
2023/08/26 05:33:56;;;;;;;6.40;5.50;;;;;;;21.75;100.00;97869.66;4155359;28;20636;-86
2023/08/26 05:35:59;;;;;;;5.77;5.20;;;;;;;21.77;100.00;97868.50;4162550;28;20639;-86
2023/08/26 05:38:03;;;;;;;9.57;5.30;;;;;;;21.77;100.00;97864.00;4150227;28;21062;-86
2023/08/26 05:40:07;;;;;;;6.13;5.50;;;;;;;21.78;100.00;97872.78;4170315;28;20633;-86
2023/08/26 05:42:10;;;;;;;6.57;5.53;;;;;;;21.79;100.00;97866.47;4150612;28;20636;-86
2023/08/26 05:44:14;;;;;;;7.27;6.00;;;;;;;21.81;100.00;97867.09;4150655;28;20631;-86
2023/08/26 05:46:17;;;;;;;11.33;6.10;;;;;;;21.81;100.00;97864.44;4176117;28;21271;-86
2023/08/26 05:48:22;;;;;;;7.47;5.97;;;;;;;21.82;100.00;97863.44;4176314;28;20725;-86
2023/08/26 05:50:25;;;;;;;7.57;5.67;;;;;;;21.82;100.00;97861.63;4161655;28;20640;-86
2023/08/26 05:52:28;;;;;;;6.60;6.00;;;;;;;21.86;100.00;97870.03;4162337;28;20632;-86
2023/08/26 05:54:32;;;;;;;6.17;5.30;;;;;;;21.88;100.00;97862.75;4159895;28;21163;-86
2023/08/26 05:56:35;;;;;;;24.57;7.00;;;;;;;21.93;100.00;97863.00;4157908;28;20662;-86
2023/08/26 05:58:38;;;;;;;8.37;6.30;;;;;;;22.01;100.00;97854.97;4172650;28;20669;-86
2023/08/26 06:00:41;;;;;;;7.60;6.10;;;;;;;22.19;100.00;97863.41;4161831;28;21178;-86
2023/08/26 06:02:44;;;;;;;7.90;7.10;;;;;;;22.36;100.00;97874.56;4175942;28;21110;-86
2023/08/26 06:04:53;;;;;;;7.73;6.30;;;;;;;22.45;100.00;97876.13;4171144;28;20709;-86
2023/08/26 06:06:57;;;;;;;9.30;6.77;;;;;;;22.65;100.00;97881.72;4169969;28;20627;-86
2023/08/26 06:09:00;;;;;;;6.30;5.60;;;;;;;22.98;100.00;97889.13;4149942;28;21203;-87
2023/08/26 06:11:03;;;;;;;8.53;6.33;;;;;;;23.27;100.00;97887.22;4160669;28;20767;-86
2023/08/26 06:13:06;;;;;;;7.27;5.93;;;;;;;23.52;100.00;97897.34;4161966;28;20634;-86
2023/08/26 06:15:10;;;;;;;6.60;5.13;;;;;;;23.70;100.00;97890.56;4160069;28;20709;-86
2023/08/26 06:17:13;;;;;;;6.20;5.57;;;;;;;23.77;100.00;97898.66;4160664;28;20652;-86
2023/08/26 06:19:17;;;;;;;6.67;5.80;;;;;;;23.63;100.00;97896.00;4178338;28;20703;-86
2023/08/26 06:21:22;;;;;;;6.10;5.50;;;;;;;23.46;100.00;97894.63;4160046;28;20666;-86
2023/08/26 06:23:25;;;;;;;6.43;5.83;;;;;;;23.31;100.00;97897.31;4177274;28;20634;-87
2023/08/26 06:25:29;;;;;;;6.47;5.03;;;;;;;23.19;100.00;97900.66;4177875;28;21263;-86
2023/08/26 06:27:35;;;;;;;6.80;5.83;;;;;;;23.10;100.00;97891.13;4158070;28;20638;-86
2023/08/26 06:29:44;;;;;;;7.90;5.67;;;;;;;23.03;100.00;97892.06;4161356;28;20641;-86
2023/08/26 06:31:47;;;;;;;7.33;5.60;;;;;;;22.99;100.00;97882.81;4171725;28;20687;-86
2023/08/26 06:33:51;;;;;;;6.73;5.30;;;;;;;22.98;100.00;97881.16;4159367;28;20642;-86
2023/08/26 06:35:54;;;;;;;7.23;6.27;;;;;;;23.01;100.00;97884.25;4172734;28;21227;-86
2023/08/26 06:38:00;;;;;;;7.10;5.53;;;;;;;23.28;100.00;97884.38;4177411;28;20920;-86
2023/08/26 06:40:05;;;;;;;9.60;5.97;;;;;;;23.52;100.00;97893.84;4174244;28;20647;-86
2023/08/26 06:42:10;;;;;;;8.17;5.73;;;;;;;23.64;100.00;97895.84;4160554;28;20691;-86
2023/08/26 06:44:26;;;;;;;7.80;5.63;;;;;;;23.56;100.00;97892.44;4187394;28;20624;-86
2023/08/26 06:46:32;;;;;;;6.87;5.60;;;;;;;23.49;100.00;97894.22;4154883;28;20634;-86
2023/08/26 06:48:36;;;;;;;5.90;5.30;;;;;;;23.66;100.00;97901.00;4154202;28;20628;-86
2023/08/26 06:50:39;;;;;;;6.60;5.30;;;;;;;23.91;100.00;97900.41;4166190;28;20636;-86
2023/08/26 06:52:44;;;;;;;7.90;5.90;;;;;;;24.08;98.39;97901.78;4176146;28;20667;-86
2023/08/26 06:54:49;;;;;;;5.80;5.20;;;;;;;24.35;97.54;97904.47;4177241;28;21076;-86
2023/08/26 06:56:54;;;;;;;6.40;5.30;;;;;;;24.44;96.16;97911.31;4159690;28;20653;-86
2023/08/26 06:58:58;;;;;;;5.23;4.43;;;;;;;24.24;95.61;97908.47;4150985;28;20724;-86
2023/08/26 07:01:02;;;;;;;6.17;5.57;;;;;;;24.07;99.81;97911.63;4170840;28;20636;-86
2023/08/26 07:03:04;;;;;;;5.83;5.23;;;;;;;23.84;97.60;97899.53;4171387;28;20644;-86
2023/08/26 07:05:08;;;;;;;8.80;5.77;;;;;;;23.66;97.35;97904.47;4166123;28;20730;-87
2023/08/26 07:07:13;;;;;;;6.00;5.40;;;;;;;23.54;97.78;97899.81;4161773;28;22991;-86
2023/08/26 07:09:16;;;;;;;7.07;6.37;;;;;;;23.45;98.15;97891.09;4168401;28;21058;-87
2023/08/26 07:11:21;;;;;;;7.70;5.70;;;;;;;23.40;98.53;97896.19;4161519;28;20640;-86
2023/08/26 07:13:24;;;;;;;6.10;5.40;;;;;;;23.40;99.77;97900.69;4168731;28;20664;-86
2023/08/26 07:15:27;;;;;;;6.87;6.17;;;;;;;23.34;99.34;97883.63;4161200;28;20624;-86
2023/08/26 07:17:30;;;;;;;6.00;5.40;;;;;;;23.32;100.00;97883.00;4168854;28;20735;-86
2023/08/26 07:19:33;;;;;;;7.40;6.00;;;;;;;23.36;100.00;97878.94;4167060;28;20641;-86
2023/08/26 07:21:37;;;;;;;9.10;5.60;;;;;;;23.39;99.71;97880.38;4165620;28;20732;-86
2023/08/26 07:23:40;;;;;;;8.30;5.80;;;;;;;23.55;100.00;97888.16;4167144;28;21027;-86
2023/08/26 07:25:43;;;;;;;8.50;6.40;;;;;;;23.71;98.03;97878.91;4148926;28;20693;-86
2023/08/26 07:27:47;;;;;;;9.90;5.30;;;;;;;23.70;98.53;97879.09;4161036;28;20681;-86
2023/08/26 07:29:51;;;;;;;5.87;5.27;;;;;;;23.63;97.56;97875.50;4174475;28;20635;-86
2023/08/26 07:31:54;;;;;;;7.20;5.60;;;;;;;23.57;98.14;97894.91;4174462;28;20648;-86
2023/08/26 07:33:57;;;;;;;7.13;6.03;;;;;;;23.48;97.56;97888.06;4152809;28;21187;-86
2023/08/26 07:36:03;;;;;;;5.90;5.30;;;;;;;23.41;98.33;97897.84;4161897;28;20670;-86
2023/08/26 07:38:07;;;;;;;6.30;5.67;;;;;;;23.39;98.70;97894.53;4180721;28;20662;-86
2023/08/26 07:40:14;;;;;;;8.17;5.70;;;;;;;23.33;99.10;97895.31;4176608;28;20855;-86
2023/08/26 07:42:17;;;;;;;7.00;5.50;;;;;;;23.31;99.84;97885.84;4169587;28;20624;-86
2023/08/26 07:44:21;;;;;;;8.13;5.47;;;;;;;23.29;100.00;97891.34;4171796;28;20751;-86
2023/08/26 07:46:24;;;;;;;6.70;5.97;;;;;;;23.29;98.66;97888.69;4156879;28;20656;-86
2023/08/26 07:48:31;;;;;;;6.70;5.80;;;;;;;23.37;100.00;97887.75;4180425;28;20646;-86
2023/08/26 07:50:38;;;;;;;6.60;5.80;;;;;;;23.71;99.75;97878.91;4163837;28;20626;-86
2023/08/26 07:52:41;;;;;;;7.13;6.07;;;;;;;24.19;98.69;97883.41;4168656;28;20644;-85
2023/08/26 07:54:44;;;;;;;6.20;5.43;;;;;;;24.33;96.84;97879.88;4157141;28;21040;-86
2023/08/26 07:56:47;;;;;;;8.50;6.23;;;;;;;24.29;96.65;97886.56;4161555;28;21223;-86
2023/08/26 07:58:51;;;;;;;9.30;6.20;;;;;;;24.17;96.94;97891.59;4176803;28;21250;-86
2023/08/26 08:00:55;;;;;;;6.60;5.90;;;;;;;24.32;95.67;97878.16;4155003;28;20726;-86
2023/08/26 08:02:57;;;;;;;7.37;5.43;;;;;;;24.42;97.85;97879.50;4163105;28;21204;-86
2023/08/26 08:05:01;;;;;;;6.37;5.03;;;;;;;24.36;93.69;97871.47;4173157;28;20656;-86
2023/08/26 08:07:05;;;;;;;5.53;5.03;;;;;;;24.24;96.42;97870.31;4163875;28;20634;-86
2023/08/26 08:09:10;;;;;;;7.90;5.60;;;;;;;24.12;94.50;97876.41;4171127;28;20715;-86
2023/08/26 08:11:13;;;;;;;8.40;5.80;;;;;;;23.96;95.26;97874.00;4163674;28;20665;-86
2023/08/26 08:13:16;;;;;;;7.13;6.20;;;;;;;23.82;95.41;97870.41;4174967;28;20680;-86
2023/08/26 08:15:19;;;;;;;7.13;5.70;;;;;;;23.74;95.40;97862.53;4177563;28;21026;-86
2023/08/26 08:17:24;;;;;;;6.90;5.40;;;;;;;23.68;94.00;97855.31;4180058;28;20993;-86
2023/08/26 08:19:27;;;;;;;6.40;5.57;;;;;;;23.71;95.25;97857.59;4178809;28;20641;-86
2023/08/26 08:21:30;;;;;;;6.60;5.80;;;;;;;23.82;95.66;97848.25;4170942;28;20731;-86
2023/08/26 08:23:33;;;;;;;6.60;5.90;;;;;;;23.92;96.28;97856.72;4172224;28;20636;-86
2023/08/26 08:25:36;;;;;;;6.90;6.20;;;;;;;23.98;95.11;97851.47;4171355;28;20646;-92
2023/08/26 08:27:40;;;;;;;6.83;5.83;;;;;;;23.97;93.49;97852.47;4177307;28;20755;-92
2023/08/26 08:29:43;;;;;;;7.13;6.20;;;;;;;23.92;93.70;97852.25;4176733;28;20771;-92
2023/08/26 08:31:47;;;;;;;7.20;5.90;;;;;;;23.92;93.78;97862.06;4151931;28;20629;-91
2023/08/26 08:33:51;;;;;;;8.20;6.50;;;;;;;23.98;96.39;97863.97;4168696;28;20631;-92
2023/08/26 08:35:54;;;;;;;8.43;6.80;;;;;;;24.01;94.20;97864.41;4171652;28;20636;-91
2023/08/26 08:37:57;;;;;;;8.33;7.53;;;;;;;24.05;95.13;97870.19;4160623;28;20663;-90
2023/08/26 08:40:01;;;;;;;7.27;6.57;;;;;;;24.02;94.97;97860.72;4161078;28;20671;-92
2023/08/26 08:42:05;;;;;;;7.80;7.10;;;;;;;24.00;93.83;97857.44;4161938;28;21096;-91
2023/08/26 08:44:11;;;;;;;7.50;6.50;;;;;;;24.01;95.60;97848.44;4166724;28;20676;-93
2023/08/26 08:46:14;;;;;;;9.50;7.00;;;;;;;23.96;96.18;97850.00;4178260;28;21309;-92
2023/08/26 08:48:19;;;;;;;7.63;6.93;;;;;;;23.93;95.36;97856.53;4168297;28;20628;-90
2023/08/26 08:50:24;;;;;;;7.97;7.00;;;;;;;23.91;95.08;97868.44;4156058;28;20629;-91
2023/08/26 08:52:28;;;;;;;9.13;6.93;;;;;;;23.99;96.54;97876.28;4176959;28;20688;-91
2023/08/26 08:54:31;;;;;;;7.80;7.00;;;;;;;24.01;94.82;97864.41;4160250;28;20621;-91
2023/08/26 08:56:34;;;;;;;7.83;7.10;;;;;;;24.04;93.43;97863.19;4176988;28;20643;-91
2023/08/26 08:58:39;;;;;;;8.57;7.50;;;;;;;24.13;93.29;97862.03;4171956;28;20694;-91
2023/08/26 09:00:42;;;;;;;8.20;7.40;;;;;;;24.24;91.90;97863.13;4152456;28;20636;-91
2023/08/26 09:02:47;;;;;;;9.67;7.27;;;;;;;24.47;90.25;97861.06;4185580;28;20622;-92
2023/08/26 09:04:50;;;;;;;9.70;8.03;;;;;;;24.64;91.35;97871.22;4172873;28;21262;-91
2023/08/26 09:06:55;;;;;;;8.47;6.47;;;;;;;24.93;93.83;97862.13;4163009;28;20664;-90
2023/08/26 09:09:00;;;;;;;7.60;6.70;;;;;;;25.11;93.56;97870.44;4173335;28;21201;-91
2023/08/26 09:11:03;;;;;;;7.57;6.40;;;;;;;25.16;94.32;97871.50;4179436;28;21212;-92
2023/08/26 09:13:06;;;;;;;9.57;6.30;;;;;;;25.03;91.23;97862.59;4177064;28;21060;-91
2023/08/26 09:15:09;;;;;;;6.20;5.60;;;;;;;24.93;91.14;97860.28;4165505;28;21186;-91
2023/08/26 09:17:17;;;;;;;9.93;6.60;;;;;;;24.90;90.74;97865.22;4165790;28;20675;-90
2023/08/26 09:19:20;;;;;;;7.13;6.37;;;;;;;24.80;90.10;97852.19;4155075;28;20641;-90
2023/08/26 09:21:23;;;;;;;6.60;6.00;;;;;;;24.72;90.33;97856.91;4162358;28;20633;-90
2023/08/26 09:23:27;;;;;;;9.37;6.63;;;;;;;24.64;91.24;97854.38;4162803;28;20621;-91
2023/08/26 09:25:31;;;;;;;10.23;7.30;;;;;;;24.55;90.68;97860.94;4160571;28;20664;-91
2023/08/26 09:27:35;;;;;;;9.47;6.80;;;;;;;24.48;94.21;97852.06;4162764;28;20652;-91
2023/08/26 09:29:38;;;;;;;7.20;6.50;;;;;;;24.45;94.11;97847.09;4149712;28;21212;-91
2023/08/26 09:31:48;;;;;;;7.17;6.47;;;;;;;24.46;94.85;97847.91;4161366;28;20734;-91
2023/08/26 09:33:51;;;;;;;8.57;6.43;;;;;;;24.51;93.26;97841.00;4160224;28;20621;-90
2023/08/26 09:35:55;;;;;;;8.10;7.30;;;;;;;24.51;91.60;97856.19;4172272;28;20613;-91
2023/08/26 09:38:01;;;;;;;8.77;7.87;;;;;;;24.48;92.00;97852.06;4159361;28;21016;-91